Time;durP1;ratioP1;P1;durP2;ratioP2;P2;SDS_P1;SDS_P2;PMS_P1;PMS_P2;Temp;Humidity;BMP_temperature;BMP_pressure;BME280_temperature;BME280_humidity;BME280_pressure;Samples;Min_cycle;Max_cycle;Signal;HPM_P1;HPM_P2
2023/06/13 00:00:37;;;;;;;10.45;6.57;;;;;;;-142.57;100.00;115900.28;5065076;28;20028;-78
2023/06/13 00:03:03;;;;;;;10.93;6.57;;;;;;;-142.57;100.00;115900.28;5081220;28;20057;-81
2023/06/13 00:05:30;;;;;;;13.10;6.63;;;;;;;-142.57;100.00;115900.28;5094389;28;20119;-83
2023/06/13 00:07:56;;;;;;;11.95;6.82;;;;;;;-142.57;100.00;115900.28;5092354;28;20031;-82
2023/06/13 00:10:21;;;;;;;13.25;7.07;;;;;;;-142.57;100.00;115900.28;5098713;28;20385;-82
2023/06/13 00:12:49;;;;;;;15.45;7.93;;;;;;;-142.57;100.00;115900.28;5098930;28;20028;-85
2023/06/13 00:15:15;;;;;;;14.10;7.68;;;;;;;-142.57;100.00;115900.28;5099215;28;20443;-77
2023/06/13 00:17:41;;;;;;;10.98;7.78;;;;;;;-142.57;100.00;115900.28;5099019;28;20409;-78
2023/06/13 00:20:08;;;;;;;14.85;8.40;;;;;;;-142.57;100.00;115900.28;5099171;28;20043;-81
2023/06/13 00:22:34;;;;;;;11.60;7.78;;;;;;;-142.57;100.00;115900.28;5098849;28;20020;-79
2023/06/13 00:25:00;;;;;;;12.98;8.23;;;;;;;-142.57;100.00;115900.28;5098869;28;20396;-86
2023/06/13 00:27:26;;;;;;;14.18;9.48;;;;;;;-142.57;100.00;115900.28;5099050;28;20036;-79
2023/06/13 00:29:51;;;;;;;15.00;8.95;;;;;;;-142.57;100.00;115900.28;5080532;28;20042;-78
2023/06/13 00:32:17;;;;;;;15.65;9.85;;;;;;;-142.57;100.00;115900.28;5099093;28;20028;-86
2023/06/13 00:34:44;;;;;;;14.70;9.32;;;;;;;-142.57;100.00;115900.28;5098567;28;20024;-79
2023/06/13 00:37:12;;;;;;;16.73;9.75;;;;;;;-142.57;100.00;115900.28;5080979;28;20089;-87
2023/06/13 00:39:41;;;;;;;18.38;10.25;;;;;;;-142.57;100.00;115900.28;5080840;28;20081;-80
2023/06/13 00:42:07;;;;;;;13.15;9.43;;;;;;;-142.57;100.00;115900.28;5098759;28;20035;-84
2023/06/13 00:44:33;;;;;;;16.52;11.30;;;;;;;-142.57;100.00;115900.28;5080752;28;20080;-82
2023/06/13 00:47:00;;;;;;;15.38;10.48;;;;;;;-142.57;100.00;115900.28;5098840;28;20113;-80
2023/06/13 00:49:27;;;;;;;21.90;10.82;;;;;;;-142.57;100.00;115900.28;5098556;28;20032;-84
2023/06/13 00:51:57;;;;;;;20.40;10.95;;;;;;;-142.57;100.00;115900.28;5080397;28;20155;-83
2023/06/13 00:54:26;;;;;;;14.55;10.25;;;;;;;-142.57;100.00;115900.28;5080404;28;20028;-79
2023/06/13 00:56:52;;;;;;;15.90;10.70;;;;;;;-142.57;100.00;115900.28;5080701;28;20042;-78
2023/06/13 00:59:18;;;;;;;14.50;10.00;;;;;;;-142.57;100.00;115900.28;5080701;28;20036;-78
2023/06/13 01:01:47;;;;;;;20.40;9.95;;;;;;;-142.57;100.00;115900.28;5064252;28;20498;-77
2023/06/13 01:04:15;;;;;;;18.38;10.73;;;;;;;-142.57;100.00;115900.28;5080507;28;20381;-83
2023/06/13 01:06:45;;;;;;;17.08;10.63;;;;;;;-142.57;100.00;115900.28;5098219;28;20063;-78
2023/06/13 01:09:11;;;;;;;19.35;11.57;;;;;;;-142.57;100.00;115900.28;5098823;28;20039;-78
2023/06/13 01:11:44;;;;;;;15.23;10.90;;;;;;;-142.57;100.00;115900.28;5098700;28;20036;-81
2023/06/13 01:14:16;;;;;;;18.83;11.15;;;;;;;-142.57;100.00;115900.28;5098855;28;20059;-79
2023/06/13 01:16:56;;;;;;;16.50;10.75;;;;;;;-142.57;100.00;115900.28;5098736;28;20032;-78
2023/06/13 01:19:38;;;;;;;22.45;11.35;;;;;;;-142.57;100.00;115900.28;5098926;28;20392;-79
2023/06/13 01:22:08;;;;;;;;;;;;;;;-142.57;100.00;115900.28;5095132;28;20077;-83
2023/06/13 01:25:20;;;;;;;16.05;10.82;;;;;;;-142.57;100.00;115900.28;5095474;28;19968;-79
2023/06/13 01:27:49;;;;;;;16.00;10.25;;;;;;;-142.57;100.00;115900.28;5076962;28;20047;-82
2023/06/13 01:30:17;;;;;;;14.63;9.57;;;;;;;-142.57;100.00;115900.28;5076798;28;20079;-80
2023/06/13 01:32:46;;;;;;;15.25;10.43;;;;;;;-142.57;100.00;115900.28;5095065;28;20046;-79
2023/06/13 01:35:13;;;;;;;13.75;9.88;;;;;;;-142.57;100.00;115900.28;5095253;28;20043;-78
2023/06/13 01:37:39;;;;;;;12.82;9.52;;;;;;;-142.57;100.00;115900.28;5094962;28;20126;-79
2023/06/13 01:40:05;;;;;;;19.70;9.80;;;;;;;-142.57;100.00;115900.28;5077061;28;20081;-78
2023/06/13 01:42:33;;;;;;;12.93;9.63;;;;;;;-142.57;100.00;115900.28;5078215;28;20388;-78
2023/06/13 01:44:59;;;;;;;17.00;10.27;;;;;;;-142.57;100.00;115900.28;5095059;28;20111;-78
2023/06/13 01:47:43;;;;;;;16.90;10.60;;;;;;;-142.57;100.00;115900.28;5095358;28;20143;-79
2023/06/13 01:50:20;;;;;;;12.32;9.38;;;;;;;-142.57;100.00;115900.28;5077219;28;20036;-84
2023/06/13 01:53:09;;;;;;;17.05;9.35;;;;;;;-142.57;100.00;115900.28;5096866;28;20054;-81
2023/06/13 01:55:47;;;;;;;12.52;8.50;;;;;;;-142.57;100.00;115900.28;5097630;28;20046;-82
2023/06/13 01:58:29;;;;;;;18.27;10.02;;;;;;;-142.57;100.00;115900.28;5079599;28;20058;-86
2023/06/13 02:00:57;;;;;;;11.00;7.17;;;;;;;-142.57;100.00;115900.28;5081151;28;20040;-84
2023/06/13 02:03:24;;;;;;;16.38;10.98;;;;;;;-142.57;100.00;115900.28;5085254;28;20266;-85
2023/06/13 02:05:50;;;;;;;15.02;9.88;;;;;;;-142.57;100.00;115900.28;5083763;28;20210;-77
2023/06/13 02:08:16;;;;;;;13.32;10.30;;;;;;;-142.57;100.00;115900.28;5095243;28;20063;-79
2023/06/13 02:10:42;;;;;;;16.10;10.25;;;;;;;-142.57;100.00;115900.28;5077166;28;20154;-85
2023/06/13 02:13:08;;;;;;;16.15;10.30;;;;;;;-142.57;100.00;115900.28;5094754;28;20039;-81
2023/06/13 02:15:34;;;;;;;12.35;9.30;;;;;;;-142.57;100.00;115900.28;5076649;28;20370;-84
2023/06/13 02:17:59;;;;;;;13.18;10.15;;;;;;;-142.57;100.00;115900.28;5076839;28;20085;-83
2023/06/13 02:20:25;;;;;;;16.20;10.20;;;;;;;-142.57;100.00;115900.28;5095142;28;20085;-81
2023/06/13 02:22:50;;;;;;;14.45;10.57;;;;;;;-142.57;100.00;115900.28;5095362;28;20035;-87
2023/06/13 02:25:17;;;;;;;13.95;9.98;;;;;;;-142.57;100.00;115900.28;5078277;28;20039;-85
2023/06/13 02:27:44;;;;;;;12.57;9.50;;;;;;;-142.57;100.00;115900.28;5082757;28;20401;-83
2023/06/13 02:30:10;;;;;;;14.57;9.95;;;;;;;-142.57;100.00;115900.28;5106597;28;20028;-82
2023/06/13 02:32:39;;;;;;;14.45;9.95;;;;;;;-142.57;100.00;115900.28;5107956;28;20536;-83
2023/06/13 02:35:10;;;;;;;14.18;9.82;;;;;;;-142.57;100.00;115900.28;5084165;28;20043;-83
2023/06/13 02:37:35;;;;;;;14.02;9.75;;;;;;;-142.57;100.00;115900.28;5096773;28;20080;-84
2023/06/13 02:40:05;;;;;;;18.65;9.63;;;;;;;-142.57;100.00;115900.28;5096336;28;20039;-83
2023/06/13 02:42:31;;;;;;;13.45;10.27;;;;;;;-142.57;100.00;115900.28;5095498;28;20057;-84
2023/06/13 02:44:57;;;;;;;13.75;9.85;;;;;;;-142.57;100.00;115900.28;5094962;28;20044;-82
2023/06/13 02:47:23;;;;;;;14.68;9.80;;;;;;;-142.57;100.00;115900.28;5094206;28;20454;-84
2023/06/13 02:49:49;;;;;;;16.73;10.45;;;;;;;-142.57;100.00;115900.28;5094073;28;20465;-83
2023/06/13 02:52:16;;;;;;;13.90;9.27;;;;;;;-142.57;100.00;115900.28;5094446;28;20374;-85
2023/06/13 02:54:41;;;;;;;17.20;10.40;;;;;;;-142.57;100.00;115900.28;5094171;28;20035;-82
2023/06/13 02:57:09;;;;;;;16.40;9.77;;;;;;;-142.57;100.00;115900.28;5094139;28;20096;-84
2023/06/13 02:59:34;;;;;;;16.20;10.32;;;;;;;-142.57;100.00;115900.28;5075504;28;20085;-83
2023/06/13 03:02:00;;;;;;;14.00;9.48;;;;;;;-142.57;100.00;115900.28;5075629;28;20039;-83
2023/06/13 03:04:28;;;;;;;18.58;10.35;;;;;;;-142.57;100.00;115900.28;5075522;28;20039;-84
2023/06/13 03:06:57;;;;;;;16.73;10.25;;;;;;;-142.57;100.00;115900.28;5075651;28;20066;-83
2023/06/13 03:09:23;;;;;;;21.65;10.15;;;;;;;-142.57;100.00;115900.28;5074629;28;20062;-82
2023/06/13 03:11:48;;;;;;;13.63;10.32;;;;;;;-142.57;100.00;115900.28;5092945;28;20477;-82
2023/06/13 03:14:17;;;;;;;17.33;11.68;;;;;;;-142.57;100.00;115900.28;5075933;28;20039;-83
2023/06/13 03:16:42;;;;;;;17.02;11.05;;;;;;;-142.57;100.00;115900.28;5095996;28;20393;-82
2023/06/13 03:19:08;;;;;;;19.75;11.48;;;;;;;-142.57;100.00;115900.28;5064109;28;20028;-85
2023/06/13 03:21:34;;;;;;;17.60;10.85;;;;;;;-142.57;100.00;115900.28;5078462;28;20043;-83
2023/06/13 03:24:00;;;;;;;17.70;11.93;;;;;;;-142.57;100.00;115900.28;5075177;28;20039;-83
2023/06/13 03:26:28;;;;;;;19.25;11.70;;;;;;;-142.57;100.00;115900.28;5074699;28;20036;-83
2023/06/13 03:28:56;;;;;;;15.25;11.60;;;;;;;-142.57;100.00;115900.28;5075273;28;20090;-83
2023/06/13 03:31:22;;;;;;;18.52;12.45;;;;;;;-142.57;100.00;115900.28;5074637;28;20024;-82
2023/06/13 03:33:48;;;;;;;16.00;11.60;;;;;;;-142.57;100.00;115900.28;5058509;28;20032;-83
2023/06/13 03:36:14;;;;;;;19.23;12.27;;;;;;;-142.57;100.00;115900.28;5093134;28;20062;-85
2023/06/13 03:38:39;;;;;;;21.92;12.20;;;;;;;-142.57;100.00;115900.28;5074855;28;20404;-83
2023/06/13 03:41:05;;;;;;;27.00;12.02;;;;;;;-142.57;100.00;115900.28;5063728;28;20032;-83
2023/06/13 03:43:35;;;;;;;19.00;13.13;;;;;;;-142.57;100.00;115900.28;5054626;28;20064;-81
2023/06/13 03:46:00;;;;;;;21.77;13.07;;;;;;;-142.57;100.00;115900.28;5054569;28;20385;-83
2023/06/13 03:48:27;;;;;;;16.73;12.85;;;;;;;-142.57;100.00;115900.28;5072702;28;20075;-84
2023/06/13 03:50:52;;;;;;;22.55;13.13;;;;;;;-142.57;100.00;115900.28;5054480;28;20131;-86
2023/06/13 03:53:18;;;;;;;16.38;12.90;;;;;;;-142.57;100.00;115900.28;5072979;28;20021;-85
2023/06/13 03:55:45;;;;;;;22.48;14.10;;;;;;;-142.57;100.00;115900.28;5072673;28;20036;-83
2023/06/13 03:58:12;;;;;;;21.35;13.10;;;;;;;-142.57;100.00;115900.28;5054569;28;20040;-83
2023/06/13 04:00:41;;;;;;;23.08;14.02;;;;;;;-142.57;100.00;115900.28;5054554;28;20064;-82
2023/06/13 04:03:08;;;;;;;20.08;13.73;;;;;;;-142.57;100.00;115900.28;5072526;28;20036;-83
2023/06/13 04:05:34;;;;;;;18.30;13.38;;;;;;;-142.57;100.00;115900.28;5054160;28;20470;-83
2023/06/13 04:08:00;;;;;;;18.30;13.68;;;;;;;-142.57;100.00;115900.28;5054382;28;20040;-81
2023/06/13 04:10:25;;;;;;;24.35;13.23;;;;;;;-142.57;100.00;115900.28;5055835;28;20094;-85
2023/06/13 04:12:51;;;;;;;16.80;13.15;;;;;;;-142.57;100.00;115900.28;5055919;28;20037;-84
2023/06/13 04:15:16;;;;;;;26.40;12.85;;;;;;;-142.57;100.00;115900.28;5055132;28;20383;-87
2023/06/13 04:17:42;;;;;;;15.50;12.90;;;;;;;-142.57;100.00;115900.28;5055590;28;20115;-83
2023/06/13 04:20:09;;;;;;;21.00;13.65;;;;;;;-142.57;100.00;115900.28;5075386;28;20056;-84
2023/06/13 04:22:35;;;;;;;23.10;14.25;;;;;;;-142.57;100.00;115900.28;5073758;28;20523;-84
2023/06/13 04:25:01;;;;;;;24.58;13.90;;;;;;;-142.57;100.00;115900.28;5076630;28;20060;-83
2023/06/13 04:27:31;;;;;;;18.40;12.30;;;;;;;-142.57;100.00;115900.28;5071172;28;20090;-84
2023/06/13 04:29:56;;;;;;;21.42;13.10;;;;;;;-142.57;100.00;115900.28;5087153;28;20112;-83
2023/06/13 04:32:26;;;;;;;17.92;13.23;;;;;;;-142.57;100.00;115900.28;5075018;28;20112;-83
2023/06/13 04:34:53;;;;;;;17.55;12.27;;;;;;;-142.57;100.00;115900.28;5055279;28;20028;-84
2023/06/13 04:37:25;;;;;;;20.42;12.70;;;;;;;-142.57;100.00;115900.28;5060057;28;20033;-82
2023/06/13 04:39:55;;;;;;;22.65;13.48;;;;;;;-142.57;100.00;115900.28;5077063;28;20090;-84
2023/06/13 04:42:28;;;;;;;23.00;13.70;;;;;;;-142.57;100.00;115900.28;5077225;28;20060;-86
2023/06/13 04:44:56;;;;;;;19.33;13.32;;;;;;;-142.57;100.00;115900.28;5073444;28;20036;-84
2023/06/13 04:47:23;;;;;;;17.02;13.32;;;;;;;-142.57;100.00;115900.28;5072504;28;20035;-83
2023/06/13 04:49:51;;;;;;;31.63;14.35;;;;;;;-142.57;100.00;115900.28;5072564;28;20458;-83
2023/06/13 04:52:18;;;;;;;21.38;14.88;;;;;;;-142.57;100.00;115900.28;5073077;28;20068;-82
2023/06/13 04:54:45;;;;;;;19.73;14.65;;;;;;;-142.57;100.00;115900.28;5073661;28;20540;-84
2023/06/13 04:57:12;;;;;;;21.35;13.93;;;;;;;-142.57;100.00;115900.28;5076022;28;20058;-84
2023/06/13 04:59:39;;;;;;;20.42;14.30;;;;;;;-142.57;100.00;115900.28;5077851;28;20119;-85
2023/06/13 05:02:04;;;;;;;25.52;14.48;;;;;;;-142.57;100.00;115900.28;5097050;28;20031;-83
2023/06/13 05:04:30;;;;;;;25.63;14.98;;;;;;;-142.57;100.00;115900.28;5080074;28;20066;-89
2023/06/13 05:06:57;;;;;;;22.13;14.57;;;;;;;-142.57;100.00;115900.28;5098050;28;20558;-88
2023/06/13 05:09:23;;;;;;;21.20;13.82;;;;;;;-142.57;100.00;115900.28;5100145;28;20040;-85
2023/06/13 05:11:52;;;;;;;19.33;14.20;;;;;;;-142.57;100.00;115900.28;5081472;28;20088;-85
2023/06/13 05:14:17;;;;;;;19.23;14.77;;;;;;;-142.57;100.00;115900.28;5080756;28;20427;-86
2023/06/13 05:16:43;;;;;;;27.65;13.90;;;;;;;-142.57;100.00;115900.28;5100952;28;20040;-87
2023/06/13 05:19:09;;;;;;;22.98;14.95;;;;;;;-142.57;100.00;115900.28;5083793;28;20092;-89
2023/06/13 05:21:34;;;;;;;20.90;13.10;;;;;;;-142.57;100.00;115900.28;5103083;28;20058;-84
2023/06/13 05:24:00;;;;;;;27.38;14.00;;;;;;;-142.57;100.00;115900.28;5082908;28;20043;-86
2023/06/13 05:26:27;;;;;;;19.25;12.68;;;;;;;-142.57;100.00;115900.28;5102958;28;20476;-83
2023/06/13 05:28:54;;;;;;;14.30;11.80;;;;;;;-142.57;100.00;115900.28;5048817;28;20066;-85
2023/06/13 05:31:19;;;;;;;19.00;11.40;;;;;;;-142.57;100.00;115900.28;5103131;28;20036;-86
2023/06/13 05:33:46;;;;;;;18.52;11.40;;;;;;;-142.57;100.00;115900.28;5100575;28;20099;-81
2023/06/13 05:36:14;;;;;;;16.50;10.70;;;;;;;-142.57;100.00;115900.28;5100806;28;20044;-81
2023/06/13 05:38:40;;;;;;;14.10;10.77;;;;;;;-142.57;100.00;115900.28;5101252;28;20366;-85
2023/06/13 05:41:05;;;;;;;15.10;10.82;;;;;;;-142.57;100.00;115900.28;5112835;28;20029;-89
2023/06/13 05:43:31;;;;;;;14.85;10.30;;;;;;;-142.57;100.00;115900.28;5105011;28;20059;-87
2023/06/13 05:45:57;;;;;;;15.82;10.38;;;;;;;-142.57;100.00;115900.28;5102087;28;20038;-86
2023/06/13 05:48:22;;;;;;;14.77;10.35;;;;;;;-142.57;100.00;115900.28;5080109;28;20465;-86
2023/06/13 05:50:48;;;;;;;16.67;9.93;;;;;;;-142.57;100.00;115900.28;5102105;28;20058;-86
2023/06/13 05:53:13;;;;;;;17.17;10.18;;;;;;;-142.57;100.00;115900.28;5083259;28;20103;-91
2023/06/13 05:55:40;;;;;;;14.73;9.73;;;;;;;-142.57;100.00;115900.28;5085211;28;20120;-90
2023/06/13 05:58:06;;;;;;;16.42;9.55;;;;;;;-142.57;100.00;115900.28;5084152;28;20086;-86
2023/06/13 06:00:31;;;;;;;11.75;7.88;;;;;;;-142.57;100.00;115900.28;5087210;28;20047;-86
2023/06/13 06:02:57;;;;;;;13.40;7.95;;;;;;;-142.57;100.00;115900.28;5087109;28;21330;-88
2023/06/13 06:05:24;;;;;;;12.77;7.78;;;;;;;-142.57;100.00;115900.28;5081094;28;20075;-84
2023/06/13 06:07:49;;;;;;;14.75;8.15;;;;;;;-142.57;100.00;115900.28;5057230;28;20021;-85
2023/06/13 06:10:15;;;;;;;15.13;8.35;;;;;;;-142.57;100.00;115900.28;5059664;28;20042;-87
2023/06/13 06:12:40;;;;;;;13.88;8.20;;;;;;;-142.57;100.00;115900.28;5074729;28;20413;-86
2023/06/13 06:15:07;;;;;;;16.42;7.88;;;;;;;-142.57;100.00;115900.28;5057336;28;20394;-87
2023/06/13 06:17:33;;;;;;;10.35;7.82;;;;;;;-142.57;100.00;115900.28;5058563;28;20055;-86
2023/06/13 06:19:58;;;;;;;18.42;8.13;;;;;;;-142.57;100.00;115900.28;5078770;28;20072;-85
2023/06/13 06:22:24;;;;;;;15.32;7.45;;;;;;;-142.57;100.00;115900.28;5079669;28;20029;-87
2023/06/13 06:24:50;;;;;;;10.68;6.95;;;;;;;-142.57;100.00;115900.28;5077259;28;20116;-85
2023/06/13 06:27:15;;;;;;;12.02;7.25;;;;;;;-142.57;100.00;115900.28;5079186;28;20493;-88
2023/06/13 06:29:44;;;;;;;13.27;7.53;;;;;;;-142.57;100.00;115900.28;5079281;28;20024;-87
2023/06/13 06:32:10;;;;;;;8.77;7.43;;;;;;;-142.57;100.00;115900.28;5081956;28;20028;-86
2023/06/13 06:34:36;;;;;;;9.75;6.60;;;;;;;-142.57;100.00;115900.28;5082521;28;20024;-85
2023/06/13 06:37:03;;;;;;;15.75;7.45;;;;;;;-142.57;100.00;115900.28;5084044;28;20039;-89
2023/06/13 06:39:29;;;;;;;14.70;7.43;;;;;;;-142.57;100.00;115900.28;5065130;28;20028;-88
2023/06/13 06:41:59;;;;;;;15.50;7.95;;;;;;;-142.57;100.00;115900.28;5046090;28;20041;-87
2023/06/13 06:44:45;;;;;;;16.67;8.20;;;;;;;-142.57;100.00;115900.28;5064954;28;20036;-86
2023/06/13 06:47:31;;;;;;;19.23;7.80;;;;;;;-142.57;100.00;115900.28;5083593;28;20074;-89
2023/06/13 06:49:56;;;;;;;65.28;11.38;;;;;;;-142.57;100.00;115900.28;5076627;28;20472;-87
2023/06/13 06:52:22;;;;;;;21.08;8.20;;;;;;;-142.57;100.00;115900.28;5079377;28;20119;-86
2023/06/13 06:54:47;;;;;;;30.13;9.10;;;;;;;-142.57;100.00;115900.28;5079667;28;20040;-86
2023/06/13 06:57:13;;;;;;;22.48;8.15;;;;;;;-142.57;100.00;115900.28;5060469;28;20044;-85
2023/06/13 06:59:38;;;;;;;13.98;7.60;;;;;;;-142.57;100.00;115900.28;5080691;28;20164;-87
2023/06/13 07:02:07;;;;;;;43.33;9.60;;;;;;;-142.57;100.00;115900.28;5083294;28;20032;-86
2023/06/13 07:04:32;;;;;;;10.85;7.78;;;;;;;-142.57;100.00;115900.28;5060068;28;20503;-88
2023/06/13 07:06:58;;;;;;;10.18;6.95;;;;;;;-142.57;100.00;115900.28;5058276;28;20075;-86
2023/06/13 07:09:23;;;;;;;14.93;7.90;;;;;;;-142.57;100.00;115900.28;5075997;28;20059;-84
2023/06/13 07:11:50;;;;;;;17.60;8.05;;;;;;;-142.57;100.00;115900.28;5075628;28;20154;-84
2023/06/13 07:14:16;;;;;;;21.73;8.43;;;;;;;-142.57;100.00;115900.28;5076483;28;20482;-87
2023/06/13 07:16:41;;;;;;;13.90;8.43;;;;;;;-142.57;100.00;115900.28;5062376;28;20086;-87
2023/06/13 07:19:09;;;;;;;16.55;8.20;;;;;;;-142.57;100.00;115900.28;5089506;28;20101;-87
2023/06/13 07:21:35;;;;;;;15.10;8.15;;;;;;;-142.57;100.00;115900.28;5072382;28;20036;-88
2023/06/13 07:24:20;;;;;;;15.43;7.95;;;;;;;-142.57;100.00;115900.28;5075409;28;20033;-88
2023/06/13 07:26:46;;;;;;;16.92;7.55;;;;;;;-142.57;100.00;115900.28;5059368;28;20045;-90
2023/06/13 07:29:11;;;;;;;18.27;7.30;;;;;;;-142.57;100.00;115900.28;5028430;28;20036;-85
2023/06/13 07:31:37;;;;;;;15.75;8.40;;;;;;;-142.57;100.00;115900.28;5039978;28;20037;-86
2023/06/13 07:34:03;;;;;;;26.17;7.93;;;;;;;-142.57;100.00;115900.28;5046827;28;20044;-85
2023/06/13 07:36:37;;;;;;;14.80;7.07;;;;;;;-142.57;100.00;115900.28;5043199;28;20025;-88
2023/06/13 07:39:11;;;;;;;16.13;7.13;;;;;;;-142.57;100.00;115900.28;5062449;28;20045;-91
2023/06/13 07:41:37;;;;;;;17.85;7.00;;;;;;;-142.57;100.00;115900.28;5045395;28;20037;-88
2023/06/13 07:44:04;;;;;;;18.08;7.53;;;;;;;-142.57;100.00;115900.28;5083597;28;20066;-89
2023/06/13 07:46:31;;;;;;;11.00;6.47;;;;;;;-142.57;100.00;115900.28;5069391;28;20048;-86
2023/06/13 07:49:00;;;;;;;13.27;6.78;;;;;;;-142.57;100.00;115900.28;5066265;28;20064;-88
2023/06/13 07:51:26;;;;;;;14.20;6.72;;;;;;;-142.57;100.00;115900.28;5069194;28;20051;-88
2023/06/13 07:53:51;;;;;;;13.70;7.05;;;;;;;-142.57;100.00;115900.28;5059295;28;20107;-87
2023/06/13 07:56:17;;;;;;;11.68;7.35;;;;;;;-142.57;100.00;115900.28;5078887;28;20062;-83
2023/06/13 07:58:43;;;;;;;12.52;7.93;;;;;;;-142.57;100.00;115900.28;5057586;28;20105;-88
2023/06/13 08:01:08;;;;;;;12.80;8.30;;;;;;;-142.57;100.00;115900.28;5054926;28;20029;-87
2023/06/13 08:03:37;;;;;;;18.45;8.05;;;;;;;-142.57;100.00;115900.28;5075876;28;20465;-87
2023/06/13 08:06:03;;;;;;;12.77;7.82;;;;;;;-142.57;100.00;115900.28;5062249;28;20056;-90
2023/06/13 08:08:49;;;;;;;16.55;7.43;;;;;;;-142.57;100.00;115900.28;5035629;23;20132;-88
2023/06/13 08:11:18;;;;;;;17.00;8.23;;;;;;;-142.57;100.00;115900.28;4982618;28;20097;-88
2023/06/13 08:13:53;;;;;;;19.95;8.43;;;;;;;-142.57;100.00;115900.28;4978780;28;20042;-87
2023/06/13 08:16:19;;;;;;;11.25;7.50;;;;;;;-142.57;100.00;115900.28;4998200;28;20027;-90
2023/06/13 08:18:48;;;;;;;12.90;8.27;;;;;;;-142.57;100.00;115900.28;4967660;28;20030;-88
2023/06/13 08:21:13;;;;;;;11.75;8.00;;;;;;;-142.57;100.00;115900.28;4991794;28;20098;-91
2023/06/13 08:23:42;;;;;;;14.85;7.47;;;;;;;-142.57;100.00;115900.28;5007661;28;20074;-90
2023/06/13 08:26:11;;;;;;;13.70;7.78;;;;;;;-142.57;100.00;115900.28;4980411;28;20451;-87
2023/06/13 08:28:37;;;;;;;15.35;8.70;;;;;;;-142.57;100.00;115900.28;4991441;28;20034;-87
2023/06/13 08:31:06;;;;;;;11.65;7.88;;;;;;;-142.57;100.00;115900.28;4966715;28;20052;-88
2023/06/13 08:33:31;;;;;;;19.00;8.43;;;;;;;-142.57;100.00;115900.28;4983000;28;20046;-86
2023/06/13 08:35:59;;;;;;;22.00;8.13;;;;;;;-142.57;100.00;115900.28;4977802;28;20027;-88
2023/06/13 08:38:25;;;;;;;12.48;7.75;;;;;;;-142.57;100.00;115900.28;4990097;28;20042;-84
2023/06/13 08:40:51;;;;;;;16.38;9.48;;;;;;;-142.57;100.00;115900.28;4984087;28;20037;-86
2023/06/13 08:43:17;;;;;;;15.40;8.25;;;;;;;-142.57;100.00;115900.28;5003784;28;20038;-84
2023/06/13 08:45:43;;;;;;;16.90;7.95;;;;;;;-142.57;100.00;115900.28;4990090;28;20791;-86
2023/06/13 08:48:16;;;;;;;14.07;7.55;;;;;;;-142.57;100.00;115900.28;4986665;28;20034;-87
2023/06/13 08:50:45;;;;;;;;;;;;;;;-142.57;100.00;115900.28;5005633;28;20084;-89
2023/06/13 08:53:17;;;;;;;13.10;8.77;;;;;;;-142.57;100.00;115900.28;4997966;28;19995;-89
2023/06/13 08:55:44;;;;;;;15.30;7.70;;;;;;;-142.57;100.00;115900.28;4996337;28;20037;-88
2023/06/13 08:58:13;;;;;;;12.80;7.90;;;;;;;-142.57;100.00;115900.28;4990441;28;20041;-88
2023/06/13 09:00:43;;;;;;;16.00;8.32;;;;;;;-142.57;100.00;115900.28;4995995;28;20098;-88
2023/06/13 09:03:14;;;;;;;13.07;8.27;;;;;;;-142.57;100.00;115900.28;4988918;28;20048;-87
2023/06/13 09:05:42;;;;;;;12.45;8.55;;;;;;;-142.57;100.00;115900.28;4990828;28;20042;-86
2023/06/13 09:08:15;;;;;;;13.13;9.07;;;;;;;-142.57;100.00;115900.28;4987714;28;20121;-88
2023/06/13 09:10:42;;;;;;;17.48;8.30;;;;;;;-142.57;100.00;115900.28;4986267;28;20054;-85
2023/06/13 09:13:12;;;;;;;14.63;8.10;;;;;;;-142.57;100.00;115900.28;5002653;28;20155;-87
2023/06/13 09:15:41;;;;;;;13.02;7.72;;;;;;;-142.57;100.00;115900.28;4983174;28;20407;-89
2023/06/13 09:18:07;;;;;;;14.27;8.65;;;;;;;-142.57;100.00;115900.28;4992187;28;20057;-90
2023/06/13 09:20:33;;;;;;;13.05;8.30;;;;;;;-142.57;100.00;115900.28;4975468;28;20065;-87
2023/06/13 09:23:00;;;;;;;14.32;8.60;;;;;;;-142.57;100.00;115900.28;5004026;28;20026;-88
2023/06/13 09:25:31;;;;;;;11.45;7.97;;;;;;;-142.57;100.00;115900.28;4996762;28;20031;-89
2023/06/13 09:27:57;;;;;;;19.35;8.40;;;;;;;-142.57;100.00;115900.28;4996330;28;20038;-86
2023/06/13 09:30:24;;;;;;;13.73;8.50;;;;;;;-142.57;100.00;115900.28;4982105;28;20094;-88
2023/06/13 09:32:51;;;;;;;22.23;9.15;;;;;;;-142.57;100.00;115900.28;4967552;28;20475;-87
2023/06/13 09:35:17;;;;;;;13.25;8.50;;;;;;;-142.57;100.00;115900.28;4997839;28;20065;-91
2023/06/13 09:37:53;;;;;;;18.75;8.30;;;;;;;-142.57;100.00;115900.28;5007234;28;20042;-91
2023/06/13 09:40:22;;;;;;;11.90;8.48;;;;;;;-142.57;100.00;115900.28;4991638;28;20042;-90
2023/06/13 09:42:48;;;;;;;18.50;8.18;;;;;;;-142.57;100.00;115900.28;4996538;28;20102;-89
2023/06/13 09:45:19;;;;;;;18.70;8.73;;;;;;;-142.57;100.00;115900.28;4989094;28;20038;-90
2023/06/13 09:47:46;;;;;;;11.55;7.75;;;;;;;-142.57;100.00;115900.28;4984197;28;20047;-90
2023/06/13 09:50:40;;;;;;;12.93;7.43;;;;;;;-142.57;100.00;115900.28;4961768;28;20034;-92
2023/06/13 09:53:52;;;;;;;15.70;9.07;;;;;;;-142.57;100.00;115900.28;4995119;28;20049;-91
2023/06/13 10:05:41;;;;;;;13.35;7.50;;;;;;;-142.57;100.00;115900.28;5033752;28;20046;-89
2023/06/13 10:14:16;;;;;;;14.68;8.60;;;;;;;-142.57;100.00;115900.28;2642975;22;20392;-92
2023/06/13 10:24:53;;;;;;;18.60;10.25;;;;;;;-142.57;100.00;115900.28;5164258;23;20060;-90
2023/06/13 10:27:21;;;;;;;21.20;9.93;;;;;;;-142.57;100.00;115900.28;5060929;23;20045;-89
2023/06/13 10:36:11;;;;;;;15.02;9.25;;;;;;;-142.57;100.00;115900.28;2875183;23;20050;-87
2023/06/13 10:38:54;;;;;;;20.58;9.57;;;;;;;-142.57;100.00;115900.28;5021251;28;20096;-90
2023/06/13 10:41:59;;;;;;;19.20;10.90;;;;;;;-142.57;100.00;115900.28;5091410;23;20067;-87
2023/06/13 10:45:07;;;;;;;19.77;9.90;;;;;;;-142.57;100.00;115900.28;5021165;28;20095;-89
2023/06/13 10:47:59;;;;;;;14.98;9.23;;;;;;;-142.57;100.00;115900.28;5057909;28;20029;-89
2023/06/13 10:51:09;;;;;;;16.48;9.55;;;;;;;-142.57;100.00;115900.28;5277888;23;20025;-91
2023/06/13 10:56:59;;;;;;;17.05;8.90;;;;;;;-142.57;100.00;115900.28;3448750;22;20071;-91
2023/06/13 10:59:40;;;;;;;19.50;9.15;;;;;;;-142.57;100.00;115900.28;5077270;22;20072;-89
2023/06/13 11:02:25;;;;;;;14.57;8.95;;;;;;;-142.57;100.00;115900.28;5393659;22;20316;-89
2023/06/13 11:04:54;;;;;;;14.85;8.77;;;;;;;-142.57;100.00;115900.28;5039875;28;20032;-89
2023/06/13 11:07:28;;;;;;;18.83;10.07;;;;;;;-142.57;100.00;115900.28;5056162;28;20056;-92
2023/06/13 11:10:15;;;;;;;20.60;8.95;;;;;;;-142.57;100.00;115900.28;5037905;28;20026;-91
2023/06/13 11:12:43;;;;;;;20.00;8.60;;;;;;;-142.57;100.00;115900.28;5054217;28;20037;-90
2023/06/13 11:15:27;;;;;;;16.52;8.77;;;;;;;-142.57;100.00;115900.28;5035413;28;20045;-89
2023/06/13 11:20:46;;;;;;;15.52;8.85;;;;;;;-142.57;100.00;115900.28;5116781;22;20063;-89
2023/06/13 11:23:24;;;;;;;18.45;9.52;;;;;;;-142.57;100.00;115900.28;5031753;28;20042;-90
2023/06/13 11:25:51;;;;;;;28.35;10.23;;;;;;;-142.57;100.00;115900.28;5032983;28;20037;-89
2023/06/13 11:28:22;;;;;;;13.85;9.43;;;;;;;-142.57;100.00;115900.28;5050861;28;20039;-87
2023/06/13 11:30:47;;;;;;;14.55;9.45;;;;;;;-142.57;100.00;115900.28;5013739;28;20045;-90
2023/06/13 11:33:17;;;;;;;16.58;9.15;;;;;;;-142.57;100.00;115900.28;5030057;28;20040;-90
2023/06/13 11:35:50;;;;;;;17.02;10.05;;;;;;;-142.57;100.00;115900.28;5030468;28;20494;-87